Timeline UpdatesTrip UpdatesNews PostsPvt Posts♥♥Travel TipsAdmin PostsConv PostsFollowed PostsChat RequestsBlog PostsPNR Posts

Disclaimer
Search
 
 
Sat Oct 25, 2014 11:47:47 ISTHomeTrainsΣChainsAtlasPNRForumGalleryNewsFAQTripsMembersLoginFeedback
No Recent News for this Train
Other Trains in the News **new
Latest...
Cancelled from 15/10/14-20/10/14 #1245502***Popularly known as "BDM" amongst the local people
Wed Oct 15, 2014 (09:23PM)
⇐ Return Journey: Train# 53362

53361/BarkaKana Varanasi Passenger (UnReserved)

Time-Table HAS CHANGED.
Oct 15 (9:23PM)
Change Departure Station:
Change Arrival Station:
Post a Train Travel TipPost a Train Travel Tip **new
Post a Comment/Question/Picture/VideoPost a Comment/Question/Picture/Video
Pantry/Catering
✕ NO Pantry Car
✕ NO Catering
RSA - Rake Sharing
It has the RSA with 53359/53360 Barkakana-NSBC Gomoh Passenger.
Rake/Coach Composition
LOCO-SLR-GEN-GEN-GEN-GEN-GEN-GEN-SLR.
Loco
WAM-4 (MGS)
News    PNR    Forum    Time-Table    Availability    Fare Chart    Map    Arr/Dep History    Trips    Gallery    ΣChains    X/O    Timeline    
Travel Time: 10h 5m    46 halts    Distance: 354 km    Avg Speed: 35 km/hr
Type: Passenger
Zone: ECR/East Central
Departs @ 03:30 (Avg 24m late)
Platform# ???
SMTWTFS
Barkakana Junction/BRKA 
Arrives @ 13:35 (Avg 1h 5m late)
Platform# ???
SMTWTFS
Khurmabad Road/KVD 

46 halts. 51 intermediate Stations between Barkakana Junction and Khurmabad Road

Show ALL intermediate Stations  Show Old Time-Table

#TrkCodeStation NameX/OArrivesAvgDepartsAvgHaltPFDay#KmSpeedElevZoneAddress
1/--/BRKABarkakana Junction (4)»  -03:30+24--10.087341mECR0653-255225, Jharkhand
2/--/BHKDBhurkunda (1)  03:37+4203:39+462m1110.249363mECRRamgarh, Jharkhand
3/==/PTRUPatratu (3)  03:49+4803:51+522m--118.454373mECRDistt: Ramgarh, Jharkhand
4/==/TKSTokisud  03:59+5304:01+532m--125.657373mECRKhakhra, Jharkhand
5/==/HNDRHendegirX  04:10+5304:12+542m--134.152397mECRBadam Rd, Jharkhand
6/==/RAYRay (2)  04:25+1:0004:27+1:012m--145.591447mECRRanchi, Jharkhand
7/==/KLREKhalari (3)  04:33+1:0204:35+1:022m--154.647459mECRKhelari, Jharkhand
8/==/MGMEMcCluskieGanj (3)X  04:43+1:0604:45+1:062m--160.839476mECRPipra Toli, Jharkhand
9/==/MMLNMahuamilanX  04:59+1:1405:01+1:172m--170.086486mECRNational Highway 75, Jharkhand
10/==/TORITori (2)  05:10+1:1905:15+1:215m2182.872515mECRChandwa, Jharkhand
11/==/CTQChetarX  05:23+1:2805:24+1:291m--192.462479mECRNational Highway 75, Jharkhand
12/==/RCGTRichughutu  05:32+1:3105:33+1:311m--1100.763450mECRNational Highway 75, Jharkhand
13/==/DEMUDemu  05:41+1:3405:42+1:341m--1109.041414mECRNational Highway 75, Jharkhand
14/==/LTHRLatehar (2)  05:51+1:3605:53+1:422m--1115.233381mECRLatehar, Jharkhand
15/==/BFQBendiX  06:04+1:4106:05+1:421m--1121.267370mECRNational Highway 75, Jharkhand
16/==/KMNDKumendiX  06:12+1:4206:13+1:481m--1129.058353mECRMatnagj, Jharkhand
17/==/HHGHehegara Halt  06:23+1:5006:24+1:531m--1138.664332mECRMatnagj, Jharkhand
18/==/CPDRChhipadohar (2)  06:32+1:5506:33+2:031m--1147.222339mECRChipadohar bypass, Jharkhand
19/==/BRWDBarwadih Junction (3)  06:55+1:5307:00+1:595m--1155.413295mECRDist. Latehar, Jharkhand
20/==/MAZMangra  07:34+1:3707:35+1:371m--1163.038257mECRMangra, Jharkhand
21/==/KCKIKechki  07:43+1:3607:44+1:361m--1168.152250mECRKechki, Jharkhand
22/==/CNFChianki  07:53+1:3607:54+1:371m--1175.938237mECRNational Highway 75, Jharkhand
23/==/DTODaltonGanj (3)  08:05+1:3508:10+1:355m11182.943234mECR230812, Jharkhand
24/==/KFTKajri (2)  08:19+1:3508:20+1:371m--1189.397216mECRBairia, Jharkhand
25/==/RHRRajhura (2)  08:27+1:3808:28+1:411m--1200.621205mECRDist. Palamu, Jharkhand
26/==/TRZTolra (2)X  08:56+1:2708:58+1:262m--1210.411192mECRPalamu, Jharkhand
27/==/GHDGarhwa Road Junction (3)  09:30+5509:40+5010m--1216.261188mECRPalamu, Jharkhand
28/==/SQSSigsigi (2)  09:45 09:46+5409:47+552 1m--1222.338181mECRJharkhand, Jharkhand
29/==/KRTAKarkata  09:53 09:54+5409:55+552 1m--1226.838174mECRPalamu, Jharkhand
30/==/URDUntare Road (2)  10:03 10:04+5310:05+542 1m--1232.536170mECRPalamu, Jharkhand
31/==/SZFSatbahini  10:13 10:14+5210:15+1:022 1m--1237.939161mECRJharkhand, Jharkhand
32/==/MDJMuhammadGanj (2)  10:24 10:25+1:0110:26+1:022 1m--1244.345160mECRJharkhand, Jharkhand
33/==/KVQKosiara  10:34 10:35+1:0110:36+1:022 1m--1251.131156mECRJharkhand, Jharkhand
34/==/HDNHaidar Nagar (2)  10:45 10:46+1:0110:47+1:032 1m--1256.342145mECRPalamu, Jharkhand
35/==/JPLJapla (2)  10:56 10:57+1:0010:58+1:052 1m--1263.338149mECRPalamu, Jharkhand
36/==/KYFKajrat Nawadih  11:09 11:10+1:0711:11+1:112 1m--1270.955143mECRTiwari Vigha Rd, Jharkhand
37/==/NBGNabinagar Road (2)  11:19 11:20+1:1111:21+1:122 1m--1279.095140mECRBihar, Bihar
38/==/BSYABarkisalalya new halt!!XO  11:31-11:32-1m--1294.911123mECRTilauthu, Bihar
39/==/ANHAnkorah Akorha (3)  11:40 11:41+1:1011:42+1:112 1m--1296.654121mECRAurangabad, Bihar
40/==/BCJBagahabishunpur (3)  11:50 11:51+5911:52+1:012 1m--1304.818115mECRBagahabishunpur, Bihar
41/==/SEBSon Nagar Junction (4)  12:18 12:19+4712:20+542 1m--1312.729110mECRBarun, Bihar
42/==/DOSDehri On Sone (6)  12:32+5412:37+545m--1318.454114mECRRohtas(06184-253154), Bihar
43/==/PHEPahaleja Halt  12:41 12:42+1:0612:43+1:072 1m--1322.944112mECRPahaleja, Bihar
44/==/KWDKarwandiaX  12:51 12:52+1:0512:53+1:082 1m--1329.628112mECRKarwandiya, Bihar
45/==/SSMSasaram Junction (4)  13:06 13:07+5613:08+582 1m--1336.159111mECR06184-222051, Bihar
46/==/KMGEKumahuX  13:15 13:16+1:0613:17+1:072 1m--1344.038101mECRKamahu, Bihar
47/==/SSGShiu Sagar Road  13:25 13:26+1:0513:27+1:062 1m--1349.63699mECRShiu Sagar Rd, Bihar
48/==/KVDKhurmabad Road•  13:34 13:35+1:0513:36+1:072 1m--1354.45993mECRKhurmabad, Bihar
49/==/KTQKudra (2)  13:42 13:43+1:0713:44+1:182 1m--1361.36092mECRKudra, Bihar
50/==/PSEPusauli  13:52 13:53+1:1913:54+1:212 1m--1370.35386mECRDistt: Rohtas, Bihar
51/==/MTGEMuthani  14:02 14:03+1:2014:04+1:242 1m--1378.24783mECRNational Highway 2, Bihar
52/==/BBUBhabua Road (4)  14:10 14:11+1:2414:12+1:302 1m--1383.76080mECR06187-222222, Bihar
53/==/DGODurgauti  14:20 14:21+1:3114:22+1:352 1m--1392.64678mECRDistt Kaimur, Bihar
54/==/DCXDhanaichha  14:28 14:29+1:3414:30+1:362 1m--1398.04175mECRNational Highway 2, Bihar
55/==/KMSKaramnasa  14:38 14:39+1:3414:40+1:372 1m--1404.24578mECRNational Highway 2, Uttar Pradesh
56/==/SYJSaidraja  14:50 14:51+1:3614:52+1:402 1m--1412.43480mECRSaiyedraja, Uttar Pradesh
57/==/CDMRChandauli Majhwar  15:06 15:07+1:3315:08+1:422 1m--1420.83279mECRNational Highway 2, Uttar Pradesh
58/==/GAQGanj Khawaja  15:23 15:24+1:3815:25+1:422 1m--1429.4879mECRChandauli Mjhwr, Uttar Pradesh
59/==/MGSMughal Sarai Junction (8)X  16:30+4216:40+4810m51438.21683mECRDistt: Chandauli Pin 232101, Uttar Pradesh
60/==/VYNVyasnagarX  17:02+1:3717:03+1:461m--1443.92281mNRNational Highway 2, Uttar Pradesh
61/==/KEIKashi (3)  17:17+1:4317:18+1:591m--1449.21585mNRVaranasi, Uttar Pradesh
62%==/BSBVaranasi Junction (9)  17:50 17:40+31---1454.5-82mNRVaranasi 221002, Uttar Pradesh
Scroll to Top
Scroll to Bottom